Flight Track Log - Related Links

Times and Time Zones

All times are in EDT time to prevent confusion due to time zone crossing. See the AWE1775 flight status page for this flight to view local times or setup timezone preferences in your user account.

Time Position Orientation Groundspeed Altitude Reporting Facility
EDT Latitude Longitude Course Direction KTS MPH feet Rate Location/Type
Sun 06:40:46 PM 39.8667 -75.2833 270° West 146 168 900  Level Philadelphia TRACON
Sun 06:41:04 PM 39.8500 -75.3000 218° Southwest 151 174 1,500 1,233 Climbing Philadelphia TRACON
Sun 06:41:59 PM 39.8333 -75.3667 252° West 217 250 2,400 1,935 Climbing Philadelphia TRACON
Sun 06:43:00 PM 39.9160 -75.6642 288° West  Level FlightAware Approximate
Sun 06:43:39 PM 39.8208 -75.4953 263° West 255 293 6,500  Level New York Center
Sun 06:44:00 PM 39.9000 -75.8108 270° West  Level FlightAware Approximate
Sun 06:44:39 PM 39.8311 -75.6017 277° West 264 304 9,300  Level New York Center
Sun 06:45:00 PM 39.9000 -75.9598 270° West  Level FlightAware Approximate
Sun 06:45:39 PM 39.8456 -75.7081 280° West 288 331 11,700  Level New York Center
Sun 06:46:00 PM 39.9000 -76.1089 270° West  Level FlightAware Approximate
Sun 06:46:39 PM 39.8578 -75.8117 279° West 316 364 13,700  Level New York Center
Sun 06:47:39 PM 39.8772 -75.9403 281° West 327 376 15,800 1,900 Climbing New York Center
Sun 06:48:39 PM 39.8911 -76.0494 279° West 338 389 17,500 1,800 Climbing New York Center
Sun 06:49:39 PM 39.9097 -76.1917 280° West 350 403 19,400 1,900 Climbing New York Center
Sun 06:50:39 PM 39.9075 -76.3294 269° West 376 433 21,300 1,700 Climbing New York Center
Sun 06:51:39 PM 39.8658 -76.4589 247° West 387 445 22,800 1,550 Climbing New York Center
Sun 06:52:39 PM 39.8197 -76.5931 246° West 393 452 24,400 1,292 Climbing New York Center
Sun 06:53:49 PM 39.7728 -76.7333 247° West 394 453 25,600 797 Climbing Washington Center
Sun 06:54:47 PM 39.7236 -76.8756 246° West 407 468 26,100 915 Climbing Washington Center
Sun 06:55:47 PM 39.6719 -77.0231 246° West 437 503 27,400 1,279 Climbing Washington Center
Sun 06:56:49 PM 39.6200 -77.1703 245° Southwest 451 519 28,700 1,328 Climbing Washington Center
Sun 06:57:49 PM 39.5700 -77.3197 247° West 456 525 30,100 1,488 Climbing Washington Center
Sun 06:58:50 PM 39.5200 -77.4667 246° West 456 525 31,700 1,424 Climbing Washington Center
Sun 06:59:47 PM 39.4697 -77.6078 245° Southwest 450 518 32,900 1,068 Climbing Washington Center
Sun 07:00:48 PM 39.4194 -77.7489 245° Southwest 445 512 33,800 545 Climbing Washington Center
Sun 07:01:48 PM 39.3689 -77.8894 245° Southwest 439 505 34,000 99 Climbing Washington Center
Sun 07:02:49 PM 39.3117 -78.0325 243° Southwest 439 505 34,000  Level Washington Center
Sun 07:03:49 PM 39.2525 -78.1833 243° Southwest 451 519 34,000  Level Washington Center
Sun 07:04:49 PM 39.1950 -78.3261 243° Southwest 451 519 34,000  Level Washington Center
Sun 07:05:48 PM 39.1375 -78.4711 243° Southwest 451 519 34,000  Level Washington Center
Sun 07:06:48 PM 39.0775 -78.6183 242° Southwest 457 526 34,000  Level Washington Center
Sun 07:07:49 PM 39.0197 -78.7603 242° Southwest 457 526 34,000  Level Washington Center
Sun 07:08:49 PM 38.9617 -78.9019 242° Southwest 457 526 34,000  Level Washington Center
Sun 07:09:47 PM 38.9033 -79.0461 243° Southwest 457 526 34,000  Level Washington Center
Sun 07:10:48 PM 38.8450 -79.1872 242° Southwest 457 526 34,000  Level Washington Center
Sun 07:11:48 PM 38.8153 -79.3403 256° West 452 520 34,000  Level Washington Center
Sun 07:12:49 PM 38.7875 -79.4933 257° West 441 507 34,000  Level Washington Center
Sun 07:13:49 PM 38.7589 -79.6622 258° West 446 513 34,000  Level Washington Center
Sun 07:14:47 PM 38.7333 -79.7994 257° West 446 513 34,000  Level Washington Center
Sun 07:15:47 PM 38.7072 -79.9469 257° West 446 513 34,000  Level Washington Center
Sun 07:16:48 PM 38.6767 -80.0994 256° West 446 513 34,000 246 Level Washington Center
Sun 07:17:49 PM 38.6478 -80.2544 257° West 446 513 34,500 671 Climbing Washington Center
Sun 07:19:11 PM 38.6042 -80.4750 256° West 441 507 35,600 667 Climbing Indianapolis Center
Sun 07:20:13 PM 38.5758 -80.6278 257° West 441 507 36,100 532 Climbing Indianapolis Center
Sun 07:21:15 PM 38.5456 -80.7806 256° West 441 507 36,700 532 Climbing Indianapolis Center
Sun 07:22:17 PM 38.5167 -80.9331 256° West 441 507 37,200 439 Climbing Indianapolis Center
Sun 07:23:18 PM 38.4864 -81.0861 256° West 441 507 37,600 341 Climbing Indianapolis Center
Sun 07:24:20 PM 38.4558 -81.2383 256° West 441 507 37,900 194 Climbing Indianapolis Center
Sun 07:25:22 PM 38.4261 -81.3919 256° West 441 507 38,000 48 Climbing Indianapolis Center
Sun 07:26:24 PM 38.3947 -81.5442 255° West 441 507 38,000  Level Indianapolis Center
Sun 07:27:26 PM 38.3653 -81.6958 256° West 440 506 38,000  Level Indianapolis Center
Sun 07:28:28 PM 38.3086 -81.8686 247° West 441 507 38,000  Level Indianapolis Center
Sun 07:29:31 PM 38.2508 -82.0089 242° Southwest 441 507 38,000  Level Indianapolis Center
Sun 07:30:32 PM 38.1919 -82.1467 241° Southwest 442 509 38,000  Level Indianapolis Center
Sun 07:31:34 PM 38.1336 -82.2858 242° Southwest 442 509 38,000  Level Indianapolis Center
Sun 07:32:36 PM 38.0739 -82.4250 241° Southwest 443 510 38,000  Level Indianapolis Center
Sun 07:33:38 PM 38.0153 -82.5628 242° Southwest 443 510 38,000  Level Indianapolis Center
Sun 07:34:40 PM 37.9472 -82.7228 242° Southwest 443 510 38,000  Level Indianapolis Center
Sun 07:35:43 PM 37.8883 -82.8572 241° Southwest 442 509 38,000  Level Indianapolis Center
Sun 07:36:45 PM 37.8311 -82.9897 241° Southwest 437 503 38,000  Level Indianapolis Center
Sun 07:37:47 PM 37.7756 -83.1206 242° Southwest 428 493 38,000  Level Indianapolis Center
Sun 07:38:49 PM 37.7203 -83.2467 241° Southwest 419 482 38,000  Level Indianapolis Center
Sun 07:39:51 PM 37.6567 -83.3906 241° Southwest 411 473 38,000  Level Indianapolis Center
Sun 07:40:53 PM 37.6019 -83.5172 241° Southwest 411 473 38,000  Level Indianapolis Center
Sun 07:41:55 PM 37.5469 -83.6406 241° Southwest 410 472 38,000  Level Indianapolis Center
Sun 07:42:57 PM 37.4911 -83.7664 241° Southwest 410 472 38,000  Level Indianapolis Center
Sun 07:43:59 PM 37.4261 -83.9114 241° Southwest 410 472 38,000  Level Indianapolis Center
Sun 07:45:01 PM 37.3706 -84.0356 241° Southwest 410 472 38,000  Level Indianapolis Center
Sun 07:46:03 PM 37.3144 -84.1633 241° Southwest 411 473 38,000  Level Indianapolis Center
Sun 07:47:05 PM 37.2572 -84.2889 240° Southwest 412 474 38,000  Level Indianapolis Center
Sun 07:48:07 PM 37.2003 -84.4158 241° Southwest 413 475 38,000  Level Indianapolis Center
Sun 07:49:09 PM 37.1411 -84.5439 240° Southwest 417 480 38,000  Level Indianapolis Center
Sun 07:50:11 PM 37.0739 -84.6931 241° Southwest 420 483 38,000  Level Indianapolis Center
Sun 07:51:13 PM 37.0167 -84.8161 240° Southwest 425 489 38,000  Level Indianapolis Center
Sun 07:52:15 PM 36.9578 -84.9450 240° Southwest 426 490 38,000  Level Indianapolis Center
Sun 07:53:17 PM 36.8992 -85.0739 240° Southwest 427 491 38,000  Level Indianapolis Center
Sun 07:54:19 PM 36.8292 -85.2261 240° Southwest 426 490 38,000  Level Indianapolis Center
Sun 07:55:21 PM 36.7700 -85.3522 240° Southwest 426 490 38,000  Level Indianapolis Center
Sun 07:56:23 PM 36.7108 -85.4789 240° Southwest 425 489 38,000  Level Indianapolis Center
Sun 07:57:25 PM 36.6517 -85.6047 240° Southwest 425 489 38,000  Level Indianapolis Center
Sun 07:58:27 PM 36.5925 -85.7314 240° Southwest 425 489 38,000  Level Indianapolis Center
Sun 07:59:29 PM 36.5203 -85.8822 239° Southwest 425 489 38,000  Level Indianapolis Center
Sun 08:00:31 PM 36.4603 -86.0106 240° Southwest 426 490 38,000  Level Indianapolis Center
Sun 08:01:33 PM 36.4000 -86.1369 239° Southwest 425 489 38,000  Level Indianapolis Center
Sun 08:02:35 PM 36.3392 -86.2642 239° Southwest 425 489 38,000  Level Indianapolis Center
Sun 08:03:37 PM 36.2789 -86.3897 239° Southwest 424 488 38,000  Level Indianapolis Center
Sun 08:04:39 PM 36.2181 -86.5136 239° Southwest 419 482 38,000  Level Indianapolis Center
Sun 08:05:41 PM 36.1586 -86.6383 239° Southwest 416 479 38,000  Level Indianapolis Center
Sun 08:06:44 PM 36.1078 -86.7664 244° Southwest 410 472 38,000  Level Indianapolis Center
Sun 08:07:46 PM 36.0669 -86.8986 249° West 407 468 38,000  Level Indianapolis Center
Sun 08:08:48 PM 36.0253 -87.0278 248° West 404 465 38,000  Level Indianapolis Center
Sun 08:10:05 PM 35.9692 -87.2019 248° West 404 465 38,000  Level Memphis Center
Sun 08:11:07 PM 35.9264 -87.3317 248° West 404 465 38,000  Level Memphis Center
Sun 08:12:09 PM 35.8844 -87.4600 248° West 403 464 38,000  Level Memphis Center
Sun 08:13:11 PM 35.8406 -87.5875 247° West 403 464 38,000  Level Memphis Center
Sun 08:14:13 PM 35.7914 -87.7383 248° West 403 464 38,000  Level Memphis Center
Sun 08:15:16 PM 35.7481 -87.8683 248° West 403 464 38,000  Level Memphis Center
Sun 08:16:18 PM 35.7050 -87.9983 248° West 404 465 38,000  Level Memphis Center
Sun 08:17:20 PM 35.6606 -88.1286 247° West 405 466 38,000  Level Memphis Center
Sun 08:18:22 PM 35.6125 -88.2714 248° West 408 470 38,000  Level Memphis Center
Sun 08:19:24 PM 35.5675 -88.4025 247° West 410 472 38,000  Level Memphis Center
Sun 08:20:26 PM 35.5236 -88.5314 247° West 410 472 38,000  Level Memphis Center
Sun 08:21:28 PM 35.4789 -88.6622 247° West 410 472 38,000  Level Memphis Center
Sun 08:22:30 PM 35.4344 -88.7919 247° West 410 472 38,000  Level Memphis Center
Sun 08:23:32 PM 35.3892 -88.9192 246° West 410 472 38,000  Level Memphis Center
Sun 08:24:33 PM 35.3456 -89.0481 248° West 410 472 38,000  Level Memphis Center
Sun 08:25:35 PM 35.2914 -89.2006 247° West 410 472 38,000  Level Memphis Center
Sun 08:26:37 PM 35.2475 -89.3281 247° West 410 472 38,000  Level Memphis Center
Sun 08:27:39 PM 35.2022 -89.4544 246° West 410 472 38,000  Level Memphis Center
Sun 08:28:41 PM 35.1578 -89.5803 247° West 410 472 38,000  Level Memphis Center
Sun 08:29:43 PM 35.1139 -89.7067 247° West 410 472 38,000  Level Memphis Center
Sun 08:30:45 PM 35.0600 -89.8586 247° West 410 472 38,000  Level Memphis Center
Sun 08:31:47 PM 35.0150 -89.9858 247° West 411 473 38,000  Level Memphis Center
Sun 08:32:49 PM 34.9714 -90.1144 248° West 412 474 38,000  Level Memphis Center
Sun 08:33:51 PM 34.9264 -90.2422 247° West 412 474 38,000  Level Memphis Center
Sun 08:34:53 PM 34.8817 -90.3700 247° West 413 475 38,000  Level Memphis Center
Sun 08:35:55 PM 34.8269 -90.5242 247° West 413 475 38,000  Level Memphis Center
Sun 08:36:56 PM 34.7819 -90.6536 247° West 413 475 38,000  Level Memphis Center
Sun 08:37:58 PM 34.7367 -90.7828 247° West 414 476 38,000  Level Memphis Center
Sun 08:39:00 PM 34.6919 -90.9131 247° West 415 478 38,000  Level Memphis Center
Sun 08:40:02 PM 34.6456 -91.0419 246° West 417 480 38,000  Level Memphis Center
Sun 08:41:03 PM 34.5983 -91.1717 246° West 417 480 38,000  Level Memphis Center
Sun 08:42:05 PM 34.5431 -91.3278 247° West 418 481 38,000  Level Memphis Center
Sun 08:43:07 PM 34.4964 -91.4597 247° West 423 487 38,000  Level Memphis Center
Sun 08:44:08 PM 34.4489 -91.5908 246° West 423 487 38,000  Level Memphis Center
Sun 08:45:10 PM 34.4011 -91.7231 246° West 426 490 38,000  Level Memphis Center
Sun 08:46:12 PM 34.3533 -91.8519 246° West 427 491 38,000  Level Memphis Center
Sun 08:47:13 PM 34.2997 -91.9992 246° West 427 491 38,000  Level Memphis Center
Sun 08:48:15 PM 34.2567 -92.1147 246° West 427 491 38,000  Level Memphis Center
Sun 08:49:17 PM 34.1986 -92.2733 246° West 428 493 38,000  Level Memphis Center
Sun 08:50:18 PM 34.1497 -92.4061 246° West 429 494 38,000  Level Memphis Center
Sun 08:51:20 PM 34.1000 -92.5375 245° Southwest 429 494 38,000  Level Memphis Center
Sun 08:52:22 PM 34.0564 -92.6544 246° West 429 494 38,000  Level Memphis Center
Sun 08:53:23 PM 33.9981 -92.8097 246° West 428 493 38,000  Level Memphis Center
Sun 08:54:25 PM 33.9489 -92.9411 246° West 428 493 38,000  Level Memphis Center
Sun 08:55:26 PM 33.8992 -93.0725 246° West 428 493 38,000  Level Memphis Center
Sun 08:56:28 PM 33.8497 -93.2033 246° West 429 494 38,000  Level Memphis Center
Sun 08:57:29 PM 33.7997 -93.3339 245° Southwest 429 494 38,000  Level Memphis Center
Sun 08:58:31 PM 33.7497 -93.4633 245° Southwest 429 494 38,000  Level Memphis Center
Sun 08:59:32 PM 33.7000 -93.5942 245° Southwest 430 495 38,000  Level Memphis Center
Sun 09:00:03 PM 33.6711 -93.6722 246° West 431 496 38,000  Level Fort Worth Center
Sun 09:00:20 PM 33.6608 -93.6967 243° Southwest 430 495 38,000  Level Fort Worth Center
Sun 09:01:03 PM 33.6222 -93.8014 246° West 428 493 38,000  Level Fort Worth Center
Sun 09:01:22 PM 33.6008 -93.8511 243° Southwest 430 495 38,000  Level Fort Worth Center
Sun 09:02:04 PM 33.5708 -93.9278 245° Southwest 430 495 38,000  Level Fort Worth Center
Sun 09:02:23 PM 33.5519 -93.9800 247° West 430 495 38,000  Level Fort Worth Center
Sun 09:03:05 PM 33.5194 -94.0594 244° Southwest 433 498 38,000  Level Fort Worth Center
Sun 09:03:25 PM 33.4981 -94.1069 242° Southwest 433 498 38,000  Level Fort Worth Center
Sun 09:04:05 PM 33.4572 -94.1792 236° Southwest 439 505 38,000  Level Fort Worth Center
Sun 09:04:27 PM 33.4306 -94.2258 236° Southwest 446 513 38,000  Level Fort Worth Center
Sun 09:05:06 PM 33.3769 -94.3200 236° Southwest 430 495 38,000  Level Fort Worth Center
Sun 09:05:28 PM 33.3642 -94.3414 234° Southwest 436 502 38,000  Level Fort Worth Center
Sun 09:06:07 PM 33.3100 -94.4394 237° Southwest 433 498 38,000  Level Fort Worth Center
Sun 09:06:30 PM 33.2836 -94.4853 235° Southwest 436 502 38,000  Level Fort Worth Center
Sun 09:07:07 PM 33.2431 -94.5564 236° Southwest 431 496 38,000  Level Fort Worth Center
Sun 09:07:32 PM 33.2186 -94.6025 238° Southwest 430 495 38,000  Level Fort Worth Center
Sun 09:08:02 PM 33.1914 -94.6522 237° Southwest 431 496 38,000  Level Fort Worth Center
Sun 09:08:33 PM 33.1511 -94.7214 235° Southwest 432 497 38,000  Level Fort Worth Center
Sun 09:09:35 PM 33.0819 -94.8394 235° Southwest 433 498 38,000  Level Fort Worth Center
Sun 09:10:36 PM 32.9981 -94.9439 226° Southwest 438 504 38,000  Level Fort Worth Center
Sun 09:11:38 PM 32.9169 -95.0506 228° Southwest 438 504 38,000  Level Fort Worth Center
Sun 09:12:39 PM 32.8356 -95.1553 227° Southwest 436 502 38,000  Level Fort Worth Center
Sun 09:13:41 PM 32.7536 -95.2608 227° Southwest 435 501 38,000  Level Fort Worth Center
Sun 09:14:42 PM 32.6644 -95.3753 227° Southwest 436 502 38,000  Level Fort Worth Center
Sun 09:15:44 PM 32.5814 -95.4808 227° Southwest 436 502 38,000  Level Fort Worth Center
Sun 09:16:45 PM 32.4822 -95.6075 227° Southwest 438 504 38,000  Level Fort Worth Center
Sun 09:17:47 PM 32.4017 -95.7139 228° Southwest 438 504 38,000  Level Fort Worth Center
Sun 09:18:48 PM 32.3192 -95.8186 227° Southwest 434 499 38,000  Level Fort Worth Center
Sun 09:19:50 PM 32.2350 -95.9258 227° Southwest 435 501 38,000  Level Fort Worth Center
Sun 09:20:51 PM 32.1519 -96.0289 226° Southwest 435 501 38,000  Level Fort Worth Center
Sun 09:21:53 PM 32.0708 -96.1333 228° Southwest 435 501 38,000  Level Fort Worth Center
Sun 09:22:54 PM 31.9886 -96.2369 227° Southwest 434 499 38,000  Level Fort Worth Center
Sun 09:23:56 PM 31.9064 -96.3400 227° Southwest 434 499 38,000  Level Fort Worth Center
Sun 09:24:57 PM 31.8242 -96.4442 227° Southwest 433 498 38,000  Level Fort Worth Center
Sun 09:26:01 PM 31.7275 -96.5650 227° Southwest 432 497 38,000 -336 Level Houston Center
Sun 09:27:02 PM 31.6456 -96.6669 227° Southwest 432 497 37,300 -2,293 Descending Houston Center
Sun 09:28:04 PM 31.5625 -96.7714 227° Southwest 433 498 33,300 -3,415 Descending Houston Center
Sun 09:29:05 PM 31.4750 -96.8792 226° Southwest 450 518 30,300 -2,780 Descending Houston Center
Sun 09:30:07 PM 31.3894 -96.9836 226° Southwest 449 517 27,600 -2,683 Descending Houston Center
Sun 09:31:08 PM 31.2981 -97.0972 227° Southwest 423 487 24,800 -2,557 Descending Houston Center
Sun 09:32:09 PM 31.2211 -97.1928 227° Southwest 411 473 22,400 -2,293 Descending Houston Center
Sun 09:33:11 PM 31.1211 -97.2425 203° Southwest 399 459 20,100 -2,244 Descending Houston Center
Sun 09:34:12 PM 31.0214 -97.2825 199° South 386 444 17,800 -2,164 Descending Houston Center
Sun 09:35:13 PM 30.9261 -97.3175 197° South 369 425 15,700 -2,146 Descending Houston Center
Sun 09:36:15 PM 30.8303 -97.3561 199° South 368 423 13,400 -2,049 Descending Houston Center
Sun 09:37:16 PM 30.7467 -97.4031 206° Southwest 345 397 11,500 -1,659 Descending Houston Center
Sun 09:38:18 PM 30.6661 -97.4533 208° Southwest 333 383 10,000 -1,171 Descending Houston Center
Sun 09:39:19 PM 30.5814 -97.5069 209° Southwest 314 361 9,100 -1,525 Descending Houston Center
Sun 09:40:20 PM 30.5161 -97.5456 207° Southwest 289 333 6,900 -2,115 Descending Houston Center
Sun 09:41:21 PM 30.4561 -97.5833 208° Southwest 270 311 4,800 -1,415 Descending Houston Center
Sun 09:42:23 PM 30.3981 -97.6172 207° Southwest 254 292 4,000 -780 Descending Houston Center
Sun 09:43:24 PM 30.3486 -97.6489 209° Southwest 234 269 3,200 -492 Descending Houston Center
Sun 09:44:25 PM 30.2994 -97.6800 209° Southwest 229 264 3,000 -197 Descending Houston Center

Login

Don't have an account? Register now (free) for customized features, flight alerts, and more!